Time;durP1;ratioP1;P1;durP2;ratioP2;P2;SDS_P1;SDS_P2;PMS_P1;PMS_P2;Temp;Humidity;BMP_temperature;BMP_pressure;BME280_temperature;BME280_humidity;BME280_pressure;Samples;Min_cycle;Max_cycle;Signal;HPM_P1;HPM_P2
2021/01/21 00:01:04;;;;;;;;;17.75;16.75;;;;;12.24;38.42;97988.00;6205515;28;125572;-61
2021/01/21 00:04:06;;;;;;;;;15.80;15.20;;;;;12.30;38.44;97984.28;6208490;28;127732;-61
2021/01/21 00:07:08;;;;;;;;;14.75;13.00;;;;;12.37;38.09;97981.34;6203773;28;126289;-61
2021/01/21 00:10:10;;;;;;;;;15.00;13.60;;;;;12.40;38.22;97988.97;6206648;28;124738;-62
2021/01/21 00:13:11;;;;;;;;;14.80;14.00;;;;;12.40;38.24;97983.56;6206660;28;126287;-62
2021/01/21 00:16:12;;;;;;;;;15.00;15.00;;;;;12.40;38.18;97980.88;6200873;28;127949;-62
2021/01/21 00:19:14;;;;;;;;;13.80;13.00;;;;;12.46;38.00;97979.84;6206492;28;126700;-61
2021/01/21 00:22:16;;;;;;;;;17.00;15.00;;;;;12.15;37.91;97940.88;6208176;28;125549;-62
2021/01/21 00:25:18;;;;;;;;;14.00;13.00;;;;;12.04;38.26;97923.75;6207816;28;126499;-62
2021/01/21 00:28:19;;;;;;;;;15.00;14.00;;;;;12.30;38.22;97978.88;6207719;28;126862;-61
2021/01/21 00:31:21;;;;;;;;;17.00;15.00;;;;;12.17;38.39;97975.75;6191124;28;126748;-61
2021/01/21 00:34:24;;;;;;;;;15.40;15.00;;;;;12.08;38.48;97973.50;6197100;28;127242;-62
2021/01/21 00:37:26;;;;;;;;;14.40;14.40;;;;;12.02;38.60;97969.09;6208140;28;124706;-61
2021/01/21 00:40:27;;;;;;;;;15.00;15.00;;;;;12.02;38.89;97971.78;6196598;28;127682;-61
2021/01/21 00:43:29;;;;;;;;;16.00;14.00;;;;;12.00;38.95;97971.25;6189651;28;125868;-62
2021/01/21 00:46:30;;;;;;;;;18.00;15.50;;;;;11.71;38.79;97940.09;6193217;28;126371;-61
2021/01/21 00:49:32;;;;;;;;;17.60;15.00;;;;;11.95;38.99;97964.97;6205961;28;125089;-61
2021/01/21 00:52:34;;;;;;;;;16.50;15.50;;;;;11.84;38.99;97965.91;6208176;28;124946;-61
2021/01/21 00:55:36;;;;;;;;;13.00;13.00;;;;;11.86;38.93;97959.19;6190292;28;123997;-61
2021/01/21 00:58:37;;;;;;;;;16.75;15.75;;;;;11.86;38.69;97959.19;6208433;28;125189;-62
2021/01/21 01:01:39;;;;;;;;;16.75;16.00;;;;;11.70;39.14;97957.34;6180990;28;125331;-62
2021/01/21 01:04:44;;;;;;;;;18.00;15.00;;;;;11.71;39.14;97961.69;6165189;28;124808;-61
2021/01/21 01:07:46;;;;;;;;;18.00;16.00;;;;;11.58;39.38;97960.16;6186135;28;126411;-62
2021/01/21 01:10:49;;;;;;;;;16.75;14.75;;;;;11.51;39.37;97951.44;6169810;28;125426;-61
2021/01/21 01:14:04;;;;;;;;;19.40;16.00;;;;;11.38;39.56;97948.31;6169370;28;126084;-61
2021/01/21 01:17:05;;;;;;;;;15.20;14.00;;;;;11.20;39.79;97936.72;6184132;28;125747;-61
2021/01/21 01:20:14;;;;;;;;;15.60;14.60;;;;;11.13;39.70;97937.97;6193276;28;127043;-62
2021/01/21 01:23:15;;;;;;;;;19.60;18.00;;;;;11.00;39.98;97938.31;6188839;28;124745;-62
2021/01/21 01:26:19;;;;;;;;;17.67;16.00;;;;;10.64;40.32;97899.22;6151015;28;126420;-62
2021/01/21 01:29:21;;;;;;;;;16.20;15.60;;;;;10.80;40.54;97933.41;6184090;28;125944;-62
2021/01/21 01:32:24;;;;;;;;;17.00;16.00;;;;;10.77;40.72;97925.84;6167158;28;126375;-62
2021/01/21 01:35:28;;;;;;;;;19.40;16.00;;;;;10.75;40.89;97930.66;6168159;28;126043;-61
2021/01/21 01:38:30;;;;;;;;;16.80;14.80;;;;;10.77;40.99;97915.03;6168311;28;127705;-61
2021/01/21 01:41:41;;;;;;;;;17.20;15.00;;;;;10.85;40.79;97920.00;6168677;28;124173;-61
2021/01/21 01:44:42;;;;;;;;;16.50;15.00;;;;;10.91;40.94;97916.34;6168143;28;127031;-61
2021/01/21 01:47:46;;;;;;;;;16.75;16.75;;;;;10.96;40.76;97915.59;6180410;28;124704;-61
2021/01/21 01:51:01;;;;;;;;;17.40;17.00;;;;;11.01;40.66;97918.38;6168420;28;125881;-61
2021/01/21 01:54:07;;;;;;;;;17.00;17.00;;;;;10.95;40.42;97920.16;6168908;28;126372;-61
2021/01/21 01:57:13;;;;;;;;;18.60;15.60;;;;;10.84;40.16;97916.53;6172671;28;126096;-61
2021/01/21 02:00:17;;;;;;;;;16.00;16.00;;;;;10.73;40.44;97916.59;6168198;28;125549;-61
2021/01/21 02:03:29;;;;;;;;;14.75;13.75;;;;;10.56;39.74;97908.50;6168436;28;126234;-61
2021/01/21 02:06:53;;;;;;;;;17.40;15.40;;;;;10.33;40.56;97914.88;6168108;28;125766;-61
2021/01/21 02:09:58;;;;;;;;;20.00;18.00;;;;;10.09;41.19;97909.84;6158541;28;125270;-61
2021/01/21 02:13:12;;;;;;;;;16.20;16.00;;;;;9.93;41.58;97906.88;6192498;28;124748;-61
2021/01/21 02:16:38;;;;;;;;;15.40;14.00;;;;;9.79;41.70;97908.22;6184064;28;125785;-62
2021/01/21 02:20:16;;;;;;;;;17.00;14.60;;;;;9.72;42.32;97910.25;6193704;28;126343;-62
2021/01/21 02:23:55;;;;;;;;;15.00;13.50;;;;;9.72;42.37;97909.44;6167311;28;125969;-60
2021/01/21 02:27:06;;;;;;;;;17.60;16.60;;;;;9.47;42.07;97878.28;6167581;28;126238;-62
2021/01/21 02:31:01;;;;;;;;;15.00;14.00;;;;;9.61;42.20;97918.34;6152195;28;126279;-62
2021/01/21 02:34:16;;;;;;;;;16.00;15.00;;;;;9.49;42.53;97915.69;6136951;28;125941;-61
2021/01/21 02:37:26;;;;;;;;;16.33;15.33;;;;;9.43;42.57;97917.44;6184570;28;126049;-61
2021/01/21 02:40:40;;;;;;;;;17.80;15.80;;;;;9.38;42.41;97914.66;6184263;28;127163;-60
2021/01/21 02:43:53;;;;;;;;;16.00;16.00;;;;;9.34;42.79;97912.69;6173110;28;124635;-62
2021/01/21 02:46:57;;;;;;;;;18.50;16.75;;;;;9.01;42.77;97876.50;6191620;28;126558;-61
2021/01/21 02:50:01;;;;;;;;;15.75;14.75;;;;;9.21;42.52;97916.47;6192721;28;126871;-61
2021/01/21 02:53:04;;;;;;;;;19.00;17.60;;;;;9.07;42.74;97915.91;6191499;28;126135;-61
2021/01/21 02:56:11;;;;;;;;;19.75;17.75;;;;;8.90;42.56;97908.75;6192156;28;124880;-61
2021/01/21 02:59:31;;;;;;;;;16.80;15.20;;;;;8.77;43.25;97917.91;6191110;28;126097;-61
2021/01/21 03:02:35;;;;;;;;;19.00;17.75;;;;;8.55;43.27;97904.22;6190862;28;124691;-62
2021/01/21 03:05:37;;;;;;;;;17.00;16.00;;;;;8.56;43.32;97908.53;6192075;28;124914;-61
2021/01/21 03:08:39;;;;;;;;;21.00;19.00;;;;;8.39;43.26;97912.97;6209939;28;125107;-61
2021/01/21 03:11:41;;;;;;;;;17.00;16.00;;;;;8.45;43.19;97919.28;6175767;28;124260;-61
2021/01/21 03:14:42;;;;;;;;;17.60;17.00;;;;;8.32;43.50;97911.41;6209384;28;127982;-61
2021/01/21 03:17:44;;;;;;;;;17.80;16.20;;;;;8.25;43.67;97919.56;6174273;28;126611;-61
2021/01/21 03:20:54;;;;;;;;;18.60;16.60;;;;;7.77;43.99;97850.69;6191497;28;127185;-61
2021/01/21 03:24:06;;;;;;;;;22.00;19.00;;;;;7.79;44.05;97869.25;6166720;28;126045;-61
2021/01/21 03:27:17;;;;;;;;;18.00;15.60;;;;;8.15;43.87;97913.94;6182571;28;126229;-61
2021/01/21 03:30:19;;;;;;;;;22.00;19.00;;;;;8.11;43.60;97926.19;6149076;28;125433;-61
2021/01/21 03:33:20;;;;;;;;;19.20;16.60;;;;;7.50;43.85;97872.75;6182766;28;125131;-60
2021/01/21 03:36:26;;;;;;;;;18.80;17.20;;;;;7.92;44.13;97911.16;6179323;28;124764;-60
2021/01/21 03:39:31;;;;;;;;;16.60;15.60;;;;;7.94;44.73;97923.31;6182732;28;125931;-61
2021/01/21 03:42:44;;;;;;;;;17.75;17.25;;;;;7.95;44.22;97922.28;6166070;28;124633;-61
2021/01/21 03:46:11;;;;;;;;;20.00;18.00;;;;;7.76;44.54;97892.00;6179960;28;125898;-62
2021/01/21 03:49:13;;;;;;;;;21.00;20.00;;;;;7.92;44.30;97929.94;6205816;28;125308;-62
2021/01/21 03:52:24;;;;;;;;;21.60;18.00;;;;;7.91;44.48;97920.28;6191074;28;125019;-62
2021/01/21 03:55:34;;;;;;;;;17.00;16.40;;;;;7.84;44.47;97918.50;6190886;28;127295;-62
2021/01/21 03:58:45;;;;;;;;;17.80;17.00;;;;;7.87;44.59;97916.44;6190655;28;123690;-62
2021/01/21 04:01:52;;;;;;;;;23.50;20.75;;;;;7.89;44.63;97911.63;6190353;28;125921;-62
2021/01/21 04:04:54;;;;;;;;;22.80;21.40;;;;;7.90;44.85;97900.69;6173466;28;123442;-61
2021/01/21 04:07:56;;;;;;;;;21.00;20.00;;;;;7.74;44.33;97895.94;6190775;28;125974;-61
2021/01/21 04:10:58;;;;;;;;;19.00;18.00;;;;;7.74;44.12;97896.78;6190324;28;126760;-61
2021/01/21 04:14:22;;;;;;;;;24.00;21.20;;;;;7.47;44.34;97866.00;6178506;28;124920;-61
2021/01/21 04:17:25;;;;;;;;;21.60;20.60;;;;;7.76;44.39;97907.28;6165764;28;124679;-61
2021/01/21 04:20:27;;;;;;;;;22.40;20.40;;;;;7.75;44.44;97903.78;6166084;28;128219;-61
2021/01/21 04:23:33;;;;;;;;;22.00;20.00;;;;;7.72;44.58;97904.22;6166467;28;124925;-61
2021/01/21 04:26:37;;;;;;;;;24.00;21.00;;;;;7.72;44.79;97900.75;6179647;28;126211;-61
2021/01/21 04:29:39;;;;;;;;;29.00;25.75;;;;;7.67;45.32;97909.44;6181798;28;126311;-61
2021/01/21 04:32:41;;;;;;;;;26.00;24.00;;;;;7.68;44.90;97891.47;6165228;28;125016;-60
2021/01/21 04:35:46;;;;;;;;;27.40;23.40;;;;;7.59;44.65;97874.06;6165203;28;125867;-60
2021/01/21 04:38:47;;;;;;;;;30.00;25.80;;;;;7.60;44.97;97899.84;6181464;28;126543;-60
2021/01/21 04:41:52;;;;;;;;;36.25;32.00;;;;;7.55;44.83;97894.34;6179794;28;126202;-60
2021/01/21 04:44:57;;;;;;;;;33.20;29.80;;;;;7.23;44.76;97867.72;6175374;28;125930;-60
2021/01/21 04:48:06;;;;;;;;;32.50;29.00;;;;;7.49;44.79;97909.47;6205046;28;127385;-60
2021/01/21 04:51:21;;;;;;;;;36.20;31.20;;;;;7.41;44.83;97901.75;6164912;28;126006;-60
2021/01/21 04:54:52;;;;;;;;;41.25;35.00;;;;;7.26;45.06;97882.56;6180299;28;125983;-61
2021/01/21 04:58:17;;;;;;;;;42.40;35.00;;;;;7.20;45.08;97886.13;6181672;28;125959;-60
2021/01/21 05:01:21;;;;;;;;;42.00;33.50;;;;;7.30;44.76;97895.28;6169870;28;126521;-61
2021/01/21 05:04:24;;;;;;;;;41.40;35.00;;;;;7.21;44.88;97880.53;6164377;28;127468;-60
2021/01/21 05:07:46;;;;;;;;;42.00;35.00;;;;;7.27;44.68;97900.28;6164860;28;126010;-60
2021/01/21 05:10:52;;;;;;;;;44.20;36.00;;;;;7.00;45.17;97861.41;6174546;28;125910;-60
2021/01/21 05:13:58;;;;;;;;;46.00;36.00;;;;;7.18;45.18;97901.63;6189816;28;126073;-60
2021/01/21 05:17:19;;;;;;;;;42.75;35.75;;;;;7.14;45.12;97890.50;6205973;28;126206;-59
2021/01/21 05:20:24;;;;;;;;;43.60;35.60;;;;;7.12;45.00;97902.50;6207494;28;126479;-60
2021/01/21 05:23:44;;;;;;;;;44.50;36.25;;;;;7.13;45.81;97906.84;6206876;28;124638;-60
2021/01/21 05:26:55;;;;;;;;;46.00;38.00;;;;;7.15;45.94;97902.06;6189610;28;125468;-60
2021/01/21 05:30:18;;;;;;;;;42.75;36.00;;;;;7.18;45.46;97898.94;6203432;28;124812;-60
2021/01/21 05:33:21;;;;;;;;;46.25;37.50;;;;;7.00;45.48;97870.28;6184031;28;125917;-60
2021/01/21 05:36:43;;;;;;;;;44.80;37.40;;;;;7.17;45.34;97895.44;6163620;28;124152;-61
2021/01/21 05:39:51;;;;;;;;;44.00;37.00;;;;;7.21;45.39;97903.84;6182037;28;125823;-60
2021/01/21 05:43:17;;;;;;;;;47.00;38.00;;;;;7.08;44.92;97883.38;6190372;28;125311;-60
2021/01/21 05:46:42;;;;;;;;;43.20;35.60;;;;;7.15;45.28;97891.34;6173004;28;124970;-60
2021/01/21 05:49:45;;;;;;;;;45.00;36.00;;;;;7.20;45.42;97908.38;6187520;28;124904;-60
2021/01/21 05:52:55;;;;;;;;;45.00;37.00;;;;;7.20;45.51;97896.84;6188299;28;125668;-60
2021/01/21 05:55:57;;;;;;;;;46.40;37.40;;;;;7.16;45.78;97906.38;6208719;28;124630;-60
2021/01/21 05:59:09;;;;;;;;;47.00;38.00;;;;;7.13;45.03;97909.53;6192232;28;124865;-60
2021/01/21 06:02:16;;;;;;;;;44.60;37.00;;;;;6.74;45.08;97860.69;6168177;28;125656;-60
2021/01/21 06:05:25;;;;;;;;;47.00;38.00;;;;;6.95;45.26;97902.28;6193433;28;124768;-60
2021/01/21 06:08:28;;;;;;;;;49.00;38.80;;;;;7.03;45.25;97906.53;6209753;28;127225;-60
2021/01/21 06:11:31;;;;;;;;;46.80;38.00;;;;;7.00;45.13;97909.63;6192137;28;126052;-60
2021/01/21 06:14:32;;;;;;;;;46.80;38.40;;;;;6.97;45.44;97919.78;6209598;28;124067;-60
2021/01/21 06:17:35;;;;;;;;;43.00;36.00;;;;;6.96;45.91;97926.19;6185330;28;125020;-61
2021/01/21 06:21:18;;;;;;;;;48.60;38.60;;;;;7.03;46.07;97922.63;6132029;28;125810;-60
2021/01/21 06:24:29;;;;;;;;;47.00;38.00;;;;;6.82;45.25;97902.41;6117304;28;126007;-60
2021/01/21 06:27:37;;;;;;;;;47.00;38.00;;;;;7.01;45.38;97919.31;6184111;28;124733;-60
2021/01/21 06:30:38;;;;;;;;;51.40;38.60;;;;;7.01;44.96;97911.28;6215012;28;125918;-60
2021/01/21 06:33:42;;;;;;;;;50.00;40.00;;;;;6.85;45.42;97891.25;6201468;28;125116;-60
2021/01/21 06:36:50;;;;;;;;;50.00;39.80;;;;;7.03;45.06;97909.22;6167979;28;126917;-61
2021/01/21 06:39:53;;;;;;;;;51.00;40.60;;;;;7.09;45.29;97914.47;6198919;28;125863;-60
2021/01/21 06:43:16;;;;;;;;;51.40;39.40;;;;;7.01;45.78;97924.69;6187524;28;125450;-60
2021/01/21 06:46:19;;;;;;;;;50.20;39.00;;;;;7.07;46.10;97918.44;6205371;28;125927;-60
2021/01/21 06:49:22;;;;;;;;;54.80;43.60;;;;;7.22;45.69;97925.06;6209222;28;127114;-59
2021/01/21 06:52:25;;;;;;;;;46.20;38.00;;;;;7.31;45.08;97918.38;6208822;28;124903;-60
2021/01/21 06:55:28;;;;;;;;;49.00;40.50;;;;;7.43;45.08;97915.72;6209289;28;124824;-60
2021/01/21 06:58:47;;;;;;;;;49.75;40.00;;;;;7.61;44.79;97926.47;6209581;28;128652;-60
2021/01/21 07:01:51;;;;;;;;;48.40;40.00;;;;;7.75;44.68;97921.72;6206199;28;126203;-60
2021/01/21 07:05:07;;;;;;;;;50.00;41.00;;;;;7.96;45.00;97921.25;6204549;28;124727;-60
2021/01/21 07:08:09;;;;;;;;;52.50;42.00;;;;;8.38;43.73;97918.56;6208982;28;125285;-59
2021/01/21 07:11:11;;;;;;;;;47.20;38.80;;;;;9.15;42.03;97917.41;6206763;28;126395;-59
2021/01/21 07:14:20;;;;;;;;;52.80;41.20;;;;;10.11;40.42;97931.97;6184142;28;126594;-59
2021/01/21 07:17:27;;;;;;;;;50.00;39.00;;;;;10.76;38.86;97925.00;6190755;28;123885;-60
2021/01/21 07:20:31;;;;;;;;;49.00;39.50;;;;;11.53;37.79;97922.31;6194631;28;126397;-59
2021/01/21 07:23:37;;;;;;;;;49.00;40.00;;;;;11.97;36.80;97911.53;6209758;28;126698;-59
2021/01/21 07:26:42;;;;;;;;;50.00;40.00;;;;;12.44;35.96;97909.00;6208481;28;124657;-60
2021/01/21 07:29:44;;;;;;;;;50.00;41.00;;;;;12.74;35.64;97917.34;6207799;28;125863;-60
2021/01/21 07:32:45;;;;;;;;;47.20;39.60;;;;;12.79;35.15;97847.06;6207225;28;124738;-59
2021/01/21 07:35:48;;;;;;;;;51.00;39.00;;;;;13.83;34.24;97919.31;6197955;28;125359;-60
2021/01/21 07:38:50;;;;;;;;;49.00;40.00;;;;;14.59;33.09;97914.06;6208123;28;126526;-62
2021/01/21 07:41:54;;;;;;;;;48.80;39.80;;;;;15.36;31.84;97921.03;6208404;28;125094;-61
2021/01/21 07:45:04;;;;;;;;;51.00;39.00;;;;;16.06;30.90;97925.41;6205675;28;126618;-63
2021/01/21 07:48:27;;;;;;;;;48.50;39.50;;;;;16.58;29.99;97913.94;6192345;28;125536;-62
2021/01/21 07:51:29;;;;;;;;;48.50;40.00;;;;;17.11;29.35;97909.38;6214663;28;124823;-62
2021/01/21 07:54:46;;;;;;;;;50.00;40.25;;;;;17.67;28.65;97909.63;6207422;28;127572;-62
2021/01/21 07:57:47;;;;;;;;;45.00;37.40;;;;;18.23;27.73;97913.53;6208246;28;127308;-61
2021/01/21 08:00:51;;;;;;;;;45.60;38.60;;;;;18.88;26.98;97895.31;6205580;28;124622;-61
2021/01/21 08:03:53;;;;;;;;;50.75;40.00;;;;;19.80;25.88;97903.44;6207560;28;125112;-62
2021/01/21 08:06:56;;;;;;;;;44.00;36.00;;;;;20.52;24.66;97898.88;6193592;28;124559;-61
2021/01/21 08:10:07;;;;;;;;;49.00;39.00;;;;;21.04;24.18;97904.69;6200473;28;127394;-61
2021/01/21 08:13:15;;;;;;;;;41.40;35.40;;;;;21.40;23.66;97896.38;6207068;28;126106;-60
2021/01/21 08:16:17;;;;;;;;;48.60;40.00;;;;;21.52;23.51;97888.34;6205447;28;127600;-61
2021/01/21 08:19:19;;;;;;;;;48.60;40.00;;;;;21.60;23.11;97899.34;6207604;28;126197;-61
2021/01/21 08:22:20;;;;;;;;;48.80;40.00;;;;;21.91;23.06;97912.19;6186517;28;126320;-61
2021/01/21 08:25:23;;;;;;;;;47.25;38.75;;;;;22.29;22.30;97910.53;6182129;28;126092;-61
2021/01/21 08:28:26;;;;;;;;;48.00;38.60;;;;;23.00;21.76;97899.22;6197151;28;128367;-62
2021/01/21 08:31:37;;;;;;;;;48.00;39.00;;;;;23.75;21.20;97890.25;6207614;28;127412;-60
2021/01/21 08:34:40;;;;;;;;;48.40;39.00;;;;;24.27;20.67;97889.97;6191582;28;124062;-61
2021/01/21 08:37:43;;;;;;;;;45.00;36.00;;;;;24.64;20.17;97897.28;6186117;28;124927;-60
2021/01/21 08:40:45;;;;;;;;;47.40;38.00;;;;;24.98;19.91;97866.66;6205054;28;126254;-60
2021/01/21 08:43:48;;;;;;;;;47.00;38.60;;;;;25.21;19.27;97888.34;6195423;28;127029;-61
2021/01/21 08:46:56;;;;;;;;;47.00;38.00;;;;;25.71;19.48;97886.13;6181673;28;125945;-62
2021/01/21 08:49:58;;;;;;;;;46.60;38.60;;;;;26.22;18.90;97889.34;6194179;28;126611;-61
2021/01/21 08:53:04;;;;;;;;;45.40;37.00;;;;;26.61;18.30;97894.09;6191717;28;126295;-62
2021/01/21 08:56:12;;;;;;;;;47.00;38.00;;;;;26.88;18.26;97886.97;6181582;28;123997;-61
2021/01/21 08:59:28;;;;;;;;;44.40;36.60;;;;;27.40;17.93;97891.56;6181990;28;124556;-62
2021/01/21 09:02:40;;;;;;;;;45.00;36.00;;;;;27.79;17.76;97893.38;6193179;28;126891;-61
2021/01/21 09:05:55;;;;;;;;;46.80;38.40;;;;;28.07;17.21;97884.13;6201779;28;124767;-62
2021/01/21 09:08:58;;;;;;;;;49.00;38.00;;;;;28.51;16.67;97887.53;6204547;28;127105;-61
2021/01/21 09:12:16;;;;;;;;;46.25;38.00;;;;;29.07;16.32;97883.19;6206718;28;128564;-62
2021/01/21 09:15:17;;;;;;;;;51.33;42.00;;;;;28.98;16.30;97865.16;6206101;28;125981;-62
2021/01/21 09:18:20;;;;;;;;;52.00;42.67;;;;;28.84;15.89;97868.44;6205476;28;127602;-62
2021/01/21 09:21:22;;;;;;;;;52.00;43.00;;;;;28.62;16.32;97861.63;6163242;28;125027;-69
2021/01/21 09:24:23;;;;;;;;;53.40;44.00;;;;;28.53;16.42;97855.50;6204955;28;125486;-61
2021/01/21 09:27:25;;;;;;;;;55.00;44.00;;;;;28.35;16.53;97874.50;6206258;28;128148;-61
2021/01/21 09:30:27;;;;;;;;;54.00;44.00;;;;;27.92;16.66;97872.72;6221497;28;126550;-62
2021/01/21 09:33:28;;;;;;;;;53.60;44.00;;;;;27.63;17.30;97864.88;6214121;28;126531;-62
2021/01/21 09:36:31;;;;;;;;;58.00;46.00;;;;;27.69;17.52;97863.47;6186354;28;127235;-61
2021/01/21 09:39:32;;;;;;;;;55.60;44.40;;;;;28.00;17.07;97863.41;6205270;28;126965;-61
2021/01/21 09:42:35;;;;;;;;;54.60;44.20;;;;;28.63;16.69;97859.66;6234883;28;124929;-61
2021/01/21 09:45:37;;;;;;;;;53.40;43.80;;;;;29.05;15.98;97856.94;6235586;28;127888;-60
2021/01/21 09:48:40;;;;;;;;;54.00;44.00;;;;;29.38;16.11;97856.38;6218635;28;127599;-61
2021/01/21 09:51:42;;;;;;;;;52.00;43.00;;;;;29.54;16.05;97857.88;6210067;28;126468;-61
2021/01/21 09:54:43;;;;;;;;;50.20;41.20;;;;;29.64;15.73;97823.91;6206744;28;126596;-61
2021/01/21 09:57:45;;;;;;;;;50.00;42.00;;;;;29.91;15.40;97796.97;6209530;28;126375;-61
2021/01/21 10:00:47;;;;;;;;;50.00;41.75;;;;;30.38;15.21;97831.75;6207836;28;126785;-61
2021/01/21 10:03:48;;;;;;;;;51.40;42.00;;;;;30.45;15.06;97846.56;6177667;28;126608;-61
2021/01/21 10:06:50;;;;;;;;;46.60;37.00;;;;;29.92;15.35;97859.69;6186325;28;127141;-61
2021/01/21 10:09:52;;;;;;;;;44.60;37.40;;;;;29.40;15.62;97857.63;6193568;28;126205;-61
2021/01/21 10:12:54;;;;;;;;;47.00;38.00;;;;;29.10;16.05;97860.22;6209587;28;127402;-61
2021/01/21 10:15:56;;;;;;;;;46.00;38.00;;;;;28.94;16.33;97845.63;6201813;28;127152;-62
2021/01/21 10:18:57;;;;;;;;;45.00;37.20;;;;;28.98;16.34;97845.72;6184689;28;126621;-61
2021/01/21 10:21:59;;;;;;;;;47.00;38.00;;;;;29.21;16.16;97843.78;6200121;28;126595;-61
2021/01/21 10:25:01;;;;;;;;;46.20;38.80;;;;;29.66;15.94;97843.00;6181997;28;126402;-61
2021/01/21 10:28:02;;;;;;;;;46.60;38.00;;;;;30.12;15.71;97847.28;6196534;28;127676;-60
2021/01/21 10:31:04;;;;;;;;;49.00;39.33;;;;;30.48;15.56;97825.56;6203742;28;125158;-60
2021/01/21 10:34:07;;;;;;;;;51.00;41.00;;;;;30.42;14.57;97832.59;6183832;28;128198;-60
2021/01/21 10:37:08;;;;;;;;;47.40;40.00;;;;;30.41;14.88;97837.38;6183618;28;127458;-61
2021/01/21 10:40:11;;;;;;;;;47.00;38.00;;;;;30.33;15.44;97832.91;6183313;28;125179;-61
2021/01/21 10:43:13;;;;;;;;;45.40;38.00;;;;;30.39;15.48;97825.84;6194645;28;128265;-61
2021/01/21 10:46:14;;;;;;;;;47.20;39.00;;;;;30.46;15.06;97823.16;6208144;28;126876;-62
2021/01/21 10:49:17;;;;;;;;;46.00;38.20;;;;;30.60;14.82;97828.09;6193874;28;127271;-60
2021/01/21 10:52:18;;;;;;;;;45.40;38.00;;;;;30.51;15.30;97817.25;6176775;28;126885;-60
2021/01/21 10:55:20;;;;;;;;;47.00;38.00;;;;;30.55;15.23;97826.44;6208606;28;125326;-61
2021/01/21 10:58:21;;;;;;;;;44.25;36.25;;;;;30.61;14.91;97809.41;6210431;28;126725;-61
2021/01/21 11:01:23;;;;;;;;;46.60;38.20;;;;;30.81;14.90;97805.28;6218465;28;124816;-61
2021/01/21 11:04:24;;;;;;;;;45.00;37.20;;;;;30.80;14.95;97773.88;6211973;28;127096;-64
2021/01/21 11:07:26;;;;;;;;;45.00;38.00;;;;;31.21;14.90;97799.78;6207503;28;126814;-62
2021/01/21 11:10:27;;;;;;;;;40.40;35.40;;;;;31.04;14.80;97800.38;6205368;28;124831;-63
2021/01/21 11:13:32;;;;;;;;;44.60;36.00;;;;;30.55;14.62;97733.84;6199382;28;125382;-62
2021/01/21 11:16:33;;;;;;;;;38.25;34.25;;;;;30.30;15.07;97789.16;6192611;28;124949;-64
2021/01/21 11:19:35;;;;;;;;;40.40;34.40;;;;;30.02;15.22;97766.53;6205647;28;125505;-63
2021/01/21 11:22:37;;;;;;;;;33.80;31.80;;;;;29.92;15.22;97783.88;6207092;28;126186;-63
2021/01/21 11:25:39;;;;;;;;;34.50;30.50;;;;;29.87;15.32;97776.63;6198167;28;127486;-62
2021/01/21 11:28:42;;;;;;;;;23.40;22.40;;;;;29.98;15.17;97771.25;6204142;28;126174;-63
2021/01/21 11:31:43;;;;;;;;;16.40;15.40;;;;;30.16;15.25;97777.84;6198253;28;126503;-62
2021/01/21 11:34:45;;;;;;;;;15.00;15.00;;;;;30.45;14.77;97779.81;6199590;28;127270;-62
2021/01/21 11:37:47;;;;;;;;;32.00;29.25;;;;;30.74;14.65;97780.19;6188761;28;125514;-62
2021/01/21 11:40:50;;;;;;;;;27.40;26.40;;;;;31.03;14.49;97776.53;6205989;28;125463;-62
2021/01/21 11:43:51;;;;;;;;;28.60;26.60;;;;;31.26;14.71;97762.41;6190882;28;126110;-62
2021/01/21 11:46:53;;;;;;;;;30.80;28.00;;;;;31.35;14.41;97754.53;6198315;28;125417;-62
2021/01/21 11:49:54;;;;;;;;;31.40;28.60;;;;;31.42;14.23;97758.16;6200475;28;127214;-62
2021/01/21 11:52:57;;;;;;;;;33.50;31.00;;;;;31.47;14.50;97748.66;6196146;28;97208;-62
2021/01/21 11:55:58;;;;;;;;;38.40;32.00;;;;;31.54;14.65;97754.28;6206367;28;125523;-63
2021/01/21 11:59:17;;;;;;;;;37.00;32.50;;;;;31.50;14.71;97750.66;6155788;28;124634;-63
2021/01/21 12:02:19;;;;;;;;;36.00;32.00;;;;;31.39;14.54;97739.44;6202734;28;126412;-63
2021/01/21 12:05:20;;;;;;;;;36.75;32.75;;;;;31.52;14.44;97748.28;6199194;28;127542;-64
2021/01/21 12:08:22;;;;;;;;;41.50;35.50;;;;;31.33;14.38;97745.75;6198006;28;125221;-63
2021/01/21 12:11:23;;;;;;;;;29.20;27.20;;;;;31.23;14.78;97743.69;6185841;28;126311;-62
2021/01/21 12:14:24;;;;;;;;;35.50;31.00;;;;;31.02;14.69;97732.38;6197973;28;127428;-63
2021/01/21 12:17:26;;;;;;;;;32.50;30.00;;;;;31.00;14.69;97749.41;6196458;28;128354;-63
2021/01/21 12:20:27;;;;;;;;;32.50;30.00;;;;;30.76;15.05;97748.00;6207419;28;127877;-62
2021/01/21 12:23:29;;;;;;;;;25.25;23.00;;;;;30.47;15.07;97744.13;6198085;28;127933;-63
2021/01/21 12:26:30;;;;;;;;;28.00;26.00;;;;;30.19;15.31;97735.41;6188746;28;125038;-63
2021/01/21 12:29:31;;;;;;;;;27.40;26.40;;;;;30.06;15.52;97750.72;6199099;28;126193;-63
2021/01/21 12:32:33;;;;;;;;;20.50;18.25;;;;;29.85;15.15;97745.66;6197459;28;124752;-62
2021/01/21 12:35:35;;;;;;;;;22.60;21.00;;;;;29.79;15.28;97752.72;6199829;28;127159;-62
2021/01/21 12:38:36;;;;;;;;;30.40;26.40;;;;;29.59;15.43;97756.78;6204890;28;128012;-64
2021/01/21 12:41:40;;;;;;;;;35.60;32.00;;;;;29.49;15.92;97758.22;6195376;28;126016;-63
2021/01/21 12:44:42;;;;;;;;;33.00;30.00;;;;;29.22;16.08;97739.91;6204134;28;127153;-62
2021/01/21 12:47:44;;;;;;;;;28.00;27.00;;;;;28.90;16.24;97738.53;6206043;28;125243;-62
2021/01/21 12:50:46;;;;;;;;;33.80;28.80;;;;;28.57;16.34;97741.88;6198596;28;125215;-62
2021/01/21 12:53:50;;;;;;;;;25.60;24.00;;;;;28.38;16.58;97746.28;6197707;28;124367;-61
2021/01/21 12:56:52;;;;;;;;;27.25;26.25;;;;;28.14;16.72;97740.25;6206612;28;126284;-62
2021/01/21 12:59:56;;;;;;;;;27.40;23.00;;;;;27.87;17.08;97740.03;6197996;28;126291;-62
2021/01/21 13:02:59;;;;;;;;;24.40;21.60;;;;;27.63;17.24;97731.16;6207200;28;126795;-62
2021/01/21 13:06:01;;;;;;;;;22.80;21.00;;;;;27.38;17.36;97727.78;6207597;28;125043;-61
2021/01/21 13:09:03;;;;;;;;;25.00;22.75;;;;;27.08;17.37;97733.00;6204486;28;126394;-62
2021/01/21 13:12:05;;;;;;;;;26.00;23.00;;;;;26.73;17.91;97739.19;6202449;28;127500;-62
2021/01/21 13:15:08;;;;;;;;;22.00;21.00;;;;;26.46;18.10;97739.25;6197203;28;125079;-61
2021/01/21 13:18:10;;;;;;;;;28.00;26.00;;;;;26.17;18.30;97743.94;6202532;28;125060;-60
2021/01/21 13:21:12;;;;;;;;;27.00;25.00;;;;;25.78;18.67;97742.81;6207497;28;126147;-61
2021/01/21 13:24:14;;;;;;;;;31.50;29.00;;;;;25.42;19.12;97742.81;6199896;28;127504;-61
2021/01/21 13:27:16;;;;;;;;;29.20;25.20;;;;;25.11;19.57;97739.84;6198115;28;127083;-62
2021/01/21 13:30:18;;;;;;;;;26.60;25.60;;;;;24.77;19.68;97741.06;6208583;28;125433;-61
2021/01/21 13:33:20;;;;;;;;;28.00;24.40;;;;;24.37;20.13;97746.34;6197358;28;126257;-61
2021/01/21 13:36:22;;;;;;;;;27.00;25.00;;;;;23.91;20.64;97739.91;6197140;28;126777;-60
2021/01/21 13:39:23;;;;;;;;;29.75;27.50;;;;;23.71;20.83;97755.25;6202736;28;125060;-61
2021/01/21 13:42:27;;;;;;;;;29.20;26.00;;;;;23.47;21.42;97757.03;6198733;28;125247;-62
2021/01/21 13:45:29;;;;;;;;;30.20;27.00;;;;;23.08;21.40;97748.00;6194589;28;126519;-61
2021/01/21 13:48:31;;;;;;;;;30.40;28.00;;;;;22.85;21.99;97755.72;6202716;28;127213;-60
2021/01/21 13:51:36;;;;;;;;;34.75;28.75;;;;;22.57;22.03;97757.22;6190821;28;123198;-60
2021/01/21 13:54:38;;;;;;;;;29.75;26.75;;;;;22.42;22.63;97757.72;6199746;28;124239;-60
2021/01/21 13:57:40;;;;;;;;;31.60;28.00;;;;;22.20;22.91;97735.94;6195244;28;127311;-60
2021/01/21 14:00:41;;;;;;;;;29.60;28.00;;;;;22.09;22.73;97745.66;6202013;28;126263;-60
2021/01/21 14:03:43;;;;;;;;;35.33;31.00;;;;;22.09;23.21;97770.38;6201473;28;126510;-60
2021/01/21 14:06:44;;;;;;;;;35.20;29.60;;;;;21.97;23.19;97773.75;6194467;28;126456;-61